Bay State Village, Massachusetts
Current Conditions -  °F | °C
As of 12:58 PM on Thursday 29 Jan 2015 (Local Time) from KCEF Reporting Station
Clear Clear  
Wind Chill: 23°   Ceiling: Unl
Heat Index: 23°   Visibility: 10mi
Dew Point:   Wind: 0mph
Humidity: 39%   Direction: NA
Pressure: 30.22"   Gusts: NA
Location:  42.3249°N, 72.6582°W
Report Text: KCEF 291758Z AUTO 00000KT 10SM CLR M05/M17 A3022 RMK AO2 SLP245 T10501170 11046 21242 57034
Loading
Personal Weather Stations






























Interactive Weather Map New forecast layout! Learn more

10-Day Weather Forecast

Advertisements
Track Severe Weather on mobile